<?xml version="1.0" encoding="UTF-8" standalone="no" ?>
<gpx xmlns="http://www.topografix.com/GPX/1/1" xmlns:xsi="http://www.w3.org/2001/XMLSchema-instance" xsi:schemaLocation="http://www.topografix.com/GPX/1/1 http://www.topografix.com/GPX/1/1/gpx.xsd" version="1.1" creator="VisuGPX - https://www.visugpx.com">
  <metadata>
    <name>Ambertrail 2022  Les Papetiers  sur TraceDeTrail.fr</name>
  </metadata>
  <trk>
    <name><![CDATA[Ambertrail 2022  Les Papetiers  sur TraceDeTrail.fr]]></name>
    <extensions>
      <line xmlns="http://www.topografix.com/GPX/gpx_style/0/2">
        <color>0000FF</color>
        <width>4</width>
      </line>
    </extensions>
    <trkseg>
      <trkpt lat="45.53993" lon="3.75138">
        <ele>549</ele>
        <time>2000-01-01T01:18:03.000Z</time>
      </trkpt>
      <trkpt lat="45.54032" lon="3.75177">
        <ele>549</ele>
        <time>2000-01-01T01:18:23.000Z</time>
      </trkpt>
      <trkpt lat="45.5405" lon="3.75194">
        <ele>549</ele>
        <time>2000-01-01T01:18:33.000Z</time>
      </trkpt>
      <trkpt lat="45.54075" lon="3.75193">
        <ele>549</ele>
        <time>2000-01-01T01:18:43.000Z</time>
      </trkpt>
      <trkpt lat="45.54104" lon="3.75192">
        <ele>547</ele>
        <time>2000-01-01T01:18:53.000Z</time>
      </trkpt>
      <trkpt lat="45.54095" lon="3.75244">
        <ele>547</ele>
        <time>2000-01-01T01:19:03.000Z</time>
      </trkpt>
      <trkpt lat="45.54086" lon="3.75296">
        <ele>548</ele>
        <time>2000-01-01T01:19:13.000Z</time>
      </trkpt>
      <trkpt lat="45.54077" lon="3.75349">
        <ele>549</ele>
        <time>2000-01-01T01:19:23.000Z</time>
      </trkpt>
      <trkpt lat="45.5407" lon="3.75388">
        <ele>549</ele>
        <time>2000-01-01T01:19:33.000Z</time>
      </trkpt>
      <trkpt lat="45.5406" lon="3.7545">
        <ele>551</ele>
        <time>2000-01-01T01:19:43.000Z</time>
      </trkpt>
      <trkpt lat="45.54048" lon="3.75496">
        <ele>551</ele>
        <time>2000-01-01T01:19:53.000Z</time>
      </trkpt>
      <trkpt lat="45.54035" lon="3.75542">
        <ele>552</ele>
        <time>2000-01-01T01:20:03.000Z</time>
      </trkpt>
      <trkpt lat="45.54026" lon="3.75577">
        <ele>552</ele>
        <time>2000-01-01T01:20:13.000Z</time>
      </trkpt>
      <trkpt lat="45.54014" lon="3.7562">
        <ele>552</ele>
        <time>2000-01-01T01:20:23.000Z</time>
      </trkpt>
      <trkpt lat="45.5399" lon="3.75658">
        <ele>554</ele>
        <time>2000-01-01T01:20:33.000Z</time>
      </trkpt>
      <trkpt lat="45.53966" lon="3.75697">
        <ele>557</ele>
        <time>2000-01-01T01:20:43.000Z</time>
      </trkpt>
      <trkpt lat="45.53942" lon="3.75736">
        <ele>557</ele>
        <time>2000-01-01T01:20:53.000Z</time>
      </trkpt>
      <trkpt lat="45.53912" lon="3.75784">
        <ele>557</ele>
        <time>2000-01-01T01:21:03.000Z</time>
      </trkpt>
      <trkpt lat="45.53921" lon="3.7582">
        <ele>557</ele>
        <time>2000-01-01T01:21:13.000Z</time>
      </trkpt>
      <trkpt lat="45.53933" lon="3.75866">
        <ele>557</ele>
        <time>2000-01-01T01:21:23.000Z</time>
      </trkpt>
      <trkpt lat="45.53939" lon="3.75904">
        <ele>558</ele>
        <time>2000-01-01T01:21:33.000Z</time>
      </trkpt>
      <trkpt lat="45.53948" lon="3.75955">
        <ele>560</ele>
        <time>2000-01-01T01:21:43.000Z</time>
      </trkpt>
      <trkpt lat="45.5395" lon="3.7599">
        <ele>560</ele>
        <time>2000-01-01T01:21:53.000Z</time>
      </trkpt>
      <trkpt lat="45.53952" lon="3.76029">
        <ele>560</ele>
        <time>2000-01-01T01:22:03.000Z</time>
      </trkpt>
      <trkpt lat="45.53966" lon="3.76063">
        <ele>559</ele>
        <time>2000-01-01T01:22:13.000Z</time>
      </trkpt>
      <trkpt lat="45.5397" lon="3.76089">
        <ele>568.8</ele>
        <time>2000-01-01T01:22:23.000Z</time>
      </trkpt>
      <trkpt lat="45.54002" lon="3.76078">
        <ele>555</ele>
        <time>2000-01-01T01:22:33.000Z</time>
      </trkpt>
      <trkpt lat="45.54017" lon="3.76052">
        <ele>555</ele>
        <time>2000-01-01T01:22:43.000Z</time>
      </trkpt>
      <trkpt lat="45.54043" lon="3.76072">
        <ele>552</ele>
        <time>2000-01-01T01:22:53.000Z</time>
      </trkpt>
      <trkpt lat="45.54059" lon="3.761">
        <ele>552</ele>
        <time>2000-01-01T01:23:03.000Z</time>
      </trkpt>
      <trkpt lat="45.54083" lon="3.761">
        <ele>552</ele>
        <time>2000-01-01T01:23:13.000Z</time>
      </trkpt>
      <trkpt lat="45.54092" lon="3.76134">
        <ele>552</ele>
        <time>2000-01-01T01:23:23.000Z</time>
      </trkpt>
      <trkpt lat="45.54091" lon="3.76175">
        <ele>554</ele>
        <time>2000-01-01T01:23:33.000Z</time>
      </trkpt>
      <trkpt lat="45.54098" lon="3.76209">
        <ele>554</ele>
        <time>2000-01-01T01:23:43.000Z</time>
      </trkpt>
      <trkpt lat="45.54142" lon="3.76218">
        <ele>563</ele>
        <time>2000-01-01T01:23:53.000Z</time>
      </trkpt>
      <trkpt lat="45.54161" lon="3.76218">
        <ele>565</ele>
        <time>2000-01-01T01:24:03.000Z</time>
      </trkpt>
      <trkpt lat="45.54179" lon="3.76183">
        <ele>565</ele>
        <time>2000-01-01T01:24:13.000Z</time>
      </trkpt>
      <trkpt lat="45.5419" lon="3.76158">
        <ele>565</ele>
        <time>2000-01-01T01:24:23.000Z</time>
      </trkpt>
      <trkpt lat="45.54211" lon="3.761">
        <ele>568</ele>
        <time>2000-01-01T01:24:33.000Z</time>
      </trkpt>
      <trkpt lat="45.54223" lon="3.76138">
        <ele>572</ele>
        <time>2000-01-01T01:24:43.000Z</time>
      </trkpt>
      <trkpt lat="45.54233" lon="3.76169">
        <ele>575</ele>
        <time>2000-01-01T01:24:53.000Z</time>
      </trkpt>
      <trkpt lat="45.54244" lon="3.76201">
        <ele>581</ele>
        <time>2000-01-01T01:25:03.000Z</time>
      </trkpt>
      <trkpt lat="45.54258" lon="3.76238">
        <ele>582</ele>
        <time>2000-01-01T01:25:13.000Z</time>
      </trkpt>
      <trkpt lat="45.5427" lon="3.76267">
        <ele>581</ele>
        <time>2000-01-01T01:25:23.000Z</time>
      </trkpt>
      <trkpt lat="45.54282" lon="3.76298">
        <ele>581</ele>
        <time>2000-01-01T01:25:33.000Z</time>
      </trkpt>
      <trkpt lat="45.54289" lon="3.7633">
        <ele>583</ele>
        <time>2000-01-01T01:25:43.000Z</time>
      </trkpt>
      <trkpt lat="45.54296" lon="3.76363">
        <ele>587</ele>
        <time>2000-01-01T01:25:53.000Z</time>
      </trkpt>
      <trkpt lat="45.54301" lon="3.76397">
        <ele>589</ele>
        <time>2000-01-01T01:26:03.000Z</time>
      </trkpt>
      <trkpt lat="45.54306" lon="3.76432">
        <ele>592</ele>
        <time>2000-01-01T01:26:13.000Z</time>
      </trkpt>
      <trkpt lat="45.54328" lon="3.76463">
        <ele>597</ele>
        <time>2000-01-01T01:26:23.000Z</time>
      </trkpt>
      <trkpt lat="45.54347" lon="3.76489">
        <ele>597</ele>
        <time>2000-01-01T01:26:33.000Z</time>
      </trkpt>
      <trkpt lat="45.5437" lon="3.76522">
        <ele>597</ele>
        <time>2000-01-01T01:26:43.000Z</time>
      </trkpt>
      <trkpt lat="45.54376" lon="3.76562">
        <ele>597</ele>
        <time>2000-01-01T01:26:53.000Z</time>
      </trkpt>
      <trkpt lat="45.54385" lon="3.76624">
        <ele>596</ele>
        <time>2000-01-01T01:27:03.000Z</time>
      </trkpt>
      <trkpt lat="45.54387" lon="3.7667">
        <ele>596</ele>
        <time>2000-01-01T01:27:13.000Z</time>
      </trkpt>
      <trkpt lat="45.54389" lon="3.76715">
        <ele>596</ele>
        <time>2000-01-01T01:27:23.000Z</time>
      </trkpt>
      <trkpt lat="45.54391" lon="3.76765">
        <ele>598</ele>
        <time>2000-01-01T01:27:33.000Z</time>
      </trkpt>
      <trkpt lat="45.5439" lon="3.76811">
        <ele>599</ele>
        <time>2000-01-01T01:27:43.000Z</time>
      </trkpt>
      <trkpt lat="45.54389" lon="3.76858">
        <ele>600</ele>
        <time>2000-01-01T01:27:53.000Z</time>
      </trkpt>
      <trkpt lat="45.54388" lon="3.76913">
        <ele>602</ele>
        <time>2000-01-01T01:28:03.000Z</time>
      </trkpt>
      <trkpt lat="45.54416" lon="3.76912">
        <ele>605</ele>
        <time>2000-01-01T01:28:13.000Z</time>
      </trkpt>
      <trkpt lat="45.54459" lon="3.76911">
        <ele>605</ele>
        <time>2000-01-01T01:28:23.000Z</time>
      </trkpt>
      <trkpt lat="45.5448" lon="3.76891">
        <ele>605</ele>
        <time>2000-01-01T01:28:33.000Z</time>
      </trkpt>
      <trkpt lat="45.54505" lon="3.76868">
        <ele>605</ele>
        <time>2000-01-01T01:28:43.000Z</time>
      </trkpt>
      <trkpt lat="45.54546" lon="3.76849">
        <ele>605</ele>
        <time>2000-01-01T01:28:53.000Z</time>
      </trkpt>
      <trkpt lat="45.54571" lon="3.76853">
        <ele>613</ele>
        <time>2000-01-01T01:29:03.000Z</time>
      </trkpt>
      <trkpt lat="45.546" lon="3.76857">
        <ele>613</ele>
        <time>2000-01-01T01:29:13.000Z</time>
      </trkpt>
      <trkpt lat="45.54644" lon="3.76876">
        <ele>623</ele>
        <time>2000-01-01T01:29:23.000Z</time>
      </trkpt>
      <trkpt lat="45.54662" lon="3.76937">
        <ele>639</ele>
        <time>2000-01-01T01:29:33.000Z</time>
      </trkpt>
      <trkpt lat="45.54657" lon="3.77001">
        <ele>654</ele>
        <time>2000-01-01T01:29:43.000Z</time>
      </trkpt>
      <trkpt lat="45.54651" lon="3.77065">
        <ele>662</ele>
        <time>2000-01-01T01:29:53.000Z</time>
      </trkpt>
      <trkpt lat="45.54675" lon="3.77096">
        <ele>662</ele>
        <time>2000-01-01T01:30:03.000Z</time>
      </trkpt>
      <trkpt lat="45.54699" lon="3.77126">
        <ele>662</ele>
        <time>2000-01-01T01:30:13.000Z</time>
      </trkpt>
      <trkpt lat="45.54725" lon="3.7716">
        <ele>653</ele>
        <time>2000-01-01T01:30:23.000Z</time>
      </trkpt>
      <trkpt lat="45.54747" lon="3.77175">
        <ele>647</ele>
        <time>2000-01-01T01:30:33.000Z</time>
      </trkpt>
      <trkpt lat="45.5477" lon="3.7719">
        <ele>647</ele>
        <time>2000-01-01T01:30:43.000Z</time>
      </trkpt>
      <trkpt lat="45.54793" lon="3.77204">
        <ele>634</ele>
        <time>2000-01-01T01:30:53.000Z</time>
      </trkpt>
      <trkpt lat="45.54818" lon="3.7722">
        <ele>636</ele>
        <time>2000-01-01T01:31:03.000Z</time>
      </trkpt>
      <trkpt lat="45.54841" lon="3.7724">
        <ele>638</ele>
        <time>2000-01-01T01:31:13.000Z</time>
      </trkpt>
      <trkpt lat="45.54872" lon="3.77267">
        <ele>638</ele>
        <time>2000-01-01T01:31:23.000Z</time>
      </trkpt>
      <trkpt lat="45.54896" lon="3.77274">
        <ele>643</ele>
        <time>2000-01-01T01:31:33.000Z</time>
      </trkpt>
      <trkpt lat="45.54922" lon="3.77282">
        <ele>648</ele>
        <time>2000-01-01T01:31:43.000Z</time>
      </trkpt>
      <trkpt lat="45.54959" lon="3.77284">
        <ele>648</ele>
        <time>2000-01-01T01:31:53.000Z</time>
      </trkpt>
      <trkpt lat="45.54986" lon="3.77296">
        <ele>648</ele>
        <time>2000-01-01T01:32:03.000Z</time>
      </trkpt>
      <trkpt lat="45.55028" lon="3.77314">
        <ele>650</ele>
        <time>2000-01-01T01:32:13.000Z</time>
      </trkpt>
      <trkpt lat="45.55069" lon="3.7734">
        <ele>652</ele>
        <time>2000-01-01T01:32:23.000Z</time>
      </trkpt>
      <trkpt lat="45.551" lon="3.7734">
        <ele>655</ele>
        <time>2000-01-01T01:32:33.000Z</time>
      </trkpt>
      <trkpt lat="45.55126" lon="3.7734">
        <ele>656</ele>
        <time>2000-01-01T01:32:43.000Z</time>
      </trkpt>
      <trkpt lat="45.55159" lon="3.7734">
        <ele>656</ele>
        <time>2000-01-01T01:32:53.000Z</time>
      </trkpt>
      <trkpt lat="45.55159" lon="3.77383">
        <ele>656</ele>
        <time>2000-01-01T01:33:03.000Z</time>
      </trkpt>
      <trkpt lat="45.55159" lon="3.77418">
        <ele>656</ele>
        <time>2000-01-01T01:33:13.000Z</time>
      </trkpt>
      <trkpt lat="45.55159" lon="3.77458">
        <ele>656</ele>
        <time>2000-01-01T01:33:23.000Z</time>
      </trkpt>
      <trkpt lat="45.55153" lon="3.77467">
        <ele>669.3</ele>
        <time>2000-01-01T01:33:33.000Z</time>
      </trkpt>
      <trkpt lat="45.55136" lon="3.77496">
        <ele>657</ele>
        <time>2000-01-01T01:33:43.000Z</time>
      </trkpt>
      <trkpt lat="45.55114" lon="3.77533">
        <ele>657</ele>
        <time>2000-01-01T01:33:53.000Z</time>
      </trkpt>
      <trkpt lat="45.55127" lon="3.77573">
        <ele>657</ele>
        <time>2000-01-01T01:34:03.000Z</time>
      </trkpt>
      <trkpt lat="45.55125" lon="3.77608">
        <ele>658</ele>
        <time>2000-01-01T01:34:13.000Z</time>
      </trkpt>
      <trkpt lat="45.55123" lon="3.77648">
        <ele>659</ele>
        <time>2000-01-01T01:34:23.000Z</time>
      </trkpt>
      <trkpt lat="45.55134" lon="3.77703">
        <ele>666</ele>
        <time>2000-01-01T01:34:33.000Z</time>
      </trkpt>
      <trkpt lat="45.55176" lon="3.777">
        <ele>671</ele>
        <time>2000-01-01T01:34:43.000Z</time>
      </trkpt>
      <trkpt lat="45.55199" lon="3.77712">
        <ele>681</ele>
        <time>2000-01-01T01:34:53.000Z</time>
      </trkpt>
      <trkpt lat="45.55224" lon="3.77725">
        <ele>688</ele>
        <time>2000-01-01T01:35:03.000Z</time>
      </trkpt>
      <trkpt lat="45.55199" lon="3.77754">
        <ele>690</ele>
        <time>2000-01-01T01:35:13.000Z</time>
      </trkpt>
      <trkpt lat="45.55175" lon="3.77784">
        <ele>690</ele>
        <time>2000-01-01T01:35:23.000Z</time>
      </trkpt>
      <trkpt lat="45.55148" lon="3.77816">
        <ele>693</ele>
        <time>2000-01-01T01:35:33.000Z</time>
      </trkpt>
      <trkpt lat="45.55139" lon="3.77837">
        <ele>707.7</ele>
        <time>2000-01-01T01:35:43.000Z</time>
      </trkpt>
      <trkpt lat="45.55137" lon="3.77863">
        <ele>706</ele>
        <time>2000-01-01T01:35:53.000Z</time>
      </trkpt>
      <trkpt lat="45.55152" lon="3.77919">
        <ele>705</ele>
        <time>2000-01-01T01:36:03.000Z</time>
      </trkpt>
      <trkpt lat="45.55158" lon="3.77953">
        <ele>705</ele>
        <time>2000-01-01T01:36:13.000Z</time>
      </trkpt>
      <trkpt lat="45.55164" lon="3.77992">
        <ele>719</ele>
        <time>2000-01-01T01:36:23.000Z</time>
      </trkpt>
      <trkpt lat="45.55164" lon="3.78028">
        <ele>721</ele>
        <time>2000-01-01T01:36:33.000Z</time>
      </trkpt>
      <trkpt lat="45.55165" lon="3.78072">
        <ele>726</ele>
        <time>2000-01-01T01:36:43.000Z</time>
      </trkpt>
      <trkpt lat="45.55165" lon="3.78109">
        <ele>729</ele>
        <time>2000-01-01T01:36:53.000Z</time>
      </trkpt>
      <trkpt lat="45.55165" lon="3.78155">
        <ele>732</ele>
        <time>2000-01-01T01:37:03.000Z</time>
      </trkpt>
      <trkpt lat="45.55159" lon="3.782">
        <ele>732</ele>
        <time>2000-01-01T01:37:13.000Z</time>
      </trkpt>
      <trkpt lat="45.55142" lon="3.78227">
        <ele>741</ele>
        <time>2000-01-01T01:37:23.000Z</time>
      </trkpt>
      <trkpt lat="45.55122" lon="3.7826">
        <ele>744</ele>
        <time>2000-01-01T01:37:33.000Z</time>
      </trkpt>
      <trkpt lat="45.55098" lon="3.78237">
        <ele>749</ele>
        <time>2000-01-01T01:37:43.000Z</time>
      </trkpt>
      <trkpt lat="45.55058" lon="3.78214">
        <ele>749</ele>
        <time>2000-01-01T01:37:53.000Z</time>
      </trkpt>
      <trkpt lat="45.55037" lon="3.78179">
        <ele>750</ele>
        <time>2000-01-01T01:38:03.000Z</time>
      </trkpt>
      <trkpt lat="45.55002" lon="3.78195">
        <ele>748</ele>
        <time>2000-01-01T01:38:13.000Z</time>
      </trkpt>
      <trkpt lat="45.5499" lon="3.78193">
        <ele>758.9</ele>
        <time>2000-01-01T01:38:23.000Z</time>
      </trkpt>
      <trkpt lat="45.54965" lon="3.78199">
        <ele>747</ele>
        <time>2000-01-01T01:38:33.000Z</time>
      </trkpt>
      <trkpt lat="45.5492" lon="3.78193">
        <ele>741</ele>
        <time>2000-01-01T01:38:43.000Z</time>
      </trkpt>
      <trkpt lat="45.54896" lon="3.78186">
        <ele>738</ele>
        <time>2000-01-01T01:38:53.000Z</time>
      </trkpt>
      <trkpt lat="45.54872" lon="3.78179">
        <ele>736</ele>
        <time>2000-01-01T01:39:03.000Z</time>
      </trkpt>
      <trkpt lat="45.54847" lon="3.7813">
        <ele>733</ele>
        <time>2000-01-01T01:39:13.000Z</time>
      </trkpt>
      <trkpt lat="45.54826" lon="3.78181">
        <ele>734</ele>
        <time>2000-01-01T01:39:23.000Z</time>
      </trkpt>
      <trkpt lat="45.54822" lon="3.78216">
        <ele>733</ele>
        <time>2000-01-01T01:39:33.000Z</time>
      </trkpt>
      <trkpt lat="45.54818" lon="3.78256">
        <ele>733</ele>
        <time>2000-01-01T01:39:43.000Z</time>
      </trkpt>
      <trkpt lat="45.54817" lon="3.78294">
        <ele>733</ele>
        <time>2000-01-01T01:39:53.000Z</time>
      </trkpt>
      <trkpt lat="45.54815" lon="3.78346">
        <ele>736</ele>
        <time>2000-01-01T01:40:03.000Z</time>
      </trkpt>
      <trkpt lat="45.548" lon="3.78372">
        <ele>741</ele>
        <time>2000-01-01T01:40:13.000Z</time>
      </trkpt>
      <trkpt lat="45.54785" lon="3.78398">
        <ele>743</ele>
        <time>2000-01-01T01:40:23.000Z</time>
      </trkpt>
      <trkpt lat="45.54767" lon="3.7843">
        <ele>745</ele>
        <time>2000-01-01T01:40:33.000Z</time>
      </trkpt>
      <trkpt lat="45.54738" lon="3.78481">
        <ele>749</ele>
        <time>2000-01-01T01:40:43.000Z</time>
      </trkpt>
      <trkpt lat="45.5473" lon="3.78518">
        <ele>755</ele>
        <time>2000-01-01T01:40:53.000Z</time>
      </trkpt>
      <trkpt lat="45.5472" lon="3.7857">
        <ele>755</ele>
        <time>2000-01-01T01:41:03.000Z</time>
      </trkpt>
      <trkpt lat="45.54712" lon="3.78606">
        <ele>753</ele>
        <time>2000-01-01T01:41:13.000Z</time>
      </trkpt>
      <trkpt lat="45.54702" lon="3.78654">
        <ele>751</ele>
        <time>2000-01-01T01:41:23.000Z</time>
      </trkpt>
      <trkpt lat="45.54694" lon="3.78692">
        <ele>750</ele>
        <time>2000-01-01T01:41:33.000Z</time>
      </trkpt>
      <trkpt lat="45.54684" lon="3.78745">
        <ele>749</ele>
        <time>2000-01-01T01:41:43.000Z</time>
      </trkpt>
      <trkpt lat="45.54671" lon="3.78786">
        <ele>748</ele>
        <time>2000-01-01T01:41:53.000Z</time>
      </trkpt>
      <trkpt lat="45.54661" lon="3.78821">
        <ele>747</ele>
        <time>2000-01-01T01:42:03.000Z</time>
      </trkpt>
      <trkpt lat="45.54647" lon="3.78866">
        <ele>740</ele>
        <time>2000-01-01T01:42:13.000Z</time>
      </trkpt>
      <trkpt lat="45.54637" lon="3.78905">
        <ele>740</ele>
        <time>2000-01-01T01:42:23.000Z</time>
      </trkpt>
      <trkpt lat="45.54621" lon="3.78967">
        <ele>737</ele>
        <time>2000-01-01T01:42:33.000Z</time>
      </trkpt>
      <trkpt lat="45.54592" lon="3.78991">
        <ele>737</ele>
        <time>2000-01-01T01:42:43.000Z</time>
      </trkpt>
      <trkpt lat="45.54563" lon="3.79016">
        <ele>736</ele>
        <time>2000-01-01T01:42:53.000Z</time>
      </trkpt>
      <trkpt lat="45.54543" lon="3.79034">
        <ele>737</ele>
        <time>2000-01-01T01:43:03.000Z</time>
      </trkpt>
      <trkpt lat="45.54521" lon="3.79052">
        <ele>735</ele>
        <time>2000-01-01T01:43:13.000Z</time>
      </trkpt>
      <trkpt lat="45.54498" lon="3.79091">
        <ele>733</ele>
        <time>2000-01-01T01:43:23.000Z</time>
      </trkpt>
      <trkpt lat="45.5449" lon="3.79117">
        <ele>731</ele>
        <time>2000-01-01T01:43:33.000Z</time>
      </trkpt>
      <trkpt lat="45.54484" lon="3.79123">
        <ele>740.7</ele>
        <time>2000-01-01T01:43:43.000Z</time>
      </trkpt>
      <trkpt lat="45.54443" lon="3.79129">
        <ele>730</ele>
        <time>2000-01-01T01:43:53.000Z</time>
      </trkpt>
      <trkpt lat="45.54417" lon="3.79123">
        <ele>730</ele>
        <time>2000-01-01T01:44:03.000Z</time>
      </trkpt>
      <trkpt lat="45.54382" lon="3.79115">
        <ele>724</ele>
        <time>2000-01-01T01:44:13.000Z</time>
      </trkpt>
      <trkpt lat="45.54358" lon="3.79129">
        <ele>721</ele>
        <time>2000-01-01T01:44:23.000Z</time>
      </trkpt>
      <trkpt lat="45.5433" lon="3.79147">
        <ele>717</ele>
        <time>2000-01-01T01:44:33.000Z</time>
      </trkpt>
      <trkpt lat="45.54295" lon="3.79158">
        <ele>711</ele>
        <time>2000-01-01T01:44:43.000Z</time>
      </trkpt>
      <trkpt lat="45.54285" lon="3.79189">
        <ele>711</ele>
        <time>2000-01-01T01:44:53.000Z</time>
      </trkpt>
      <trkpt lat="45.54275" lon="3.79221">
        <ele>707</ele>
        <time>2000-01-01T01:45:03.000Z</time>
      </trkpt>
      <trkpt lat="45.54256" lon="3.7925">
        <ele>704</ele>
        <time>2000-01-01T01:45:13.000Z</time>
      </trkpt>
      <trkpt lat="45.5423" lon="3.7929">
        <ele>693</ele>
        <time>2000-01-01T01:45:23.000Z</time>
      </trkpt>
      <trkpt lat="45.54207" lon="3.79312">
        <ele>685</ele>
        <time>2000-01-01T01:45:33.000Z</time>
      </trkpt>
      <trkpt lat="45.54172" lon="3.79346">
        <ele>683</ele>
        <time>2000-01-01T01:45:43.000Z</time>
      </trkpt>
      <trkpt lat="45.54137" lon="3.79335">
        <ele>681</ele>
        <time>2000-01-01T01:45:53.000Z</time>
      </trkpt>
      <trkpt lat="45.54112" lon="3.79336">
        <ele>681</ele>
        <time>2000-01-01T01:46:03.000Z</time>
      </trkpt>
      <trkpt lat="45.54086" lon="3.79338">
        <ele>682</ele>
        <time>2000-01-01T01:46:13.000Z</time>
      </trkpt>
      <trkpt lat="45.54059" lon="3.79318">
        <ele>687</ele>
        <time>2000-01-01T01:46:23.000Z</time>
      </trkpt>
      <trkpt lat="45.54035" lon="3.79299">
        <ele>700</ele>
        <time>2000-01-01T01:46:33.000Z</time>
      </trkpt>
      <trkpt lat="45.5403" lon="3.7926">
        <ele>700</ele>
        <time>2000-01-01T01:46:43.000Z</time>
      </trkpt>
      <trkpt lat="45.54041" lon="3.79202">
        <ele>703</ele>
        <time>2000-01-01T01:46:53.000Z</time>
      </trkpt>
      <trkpt lat="45.54037" lon="3.79144">
        <ele>705</ele>
        <time>2000-01-01T01:47:03.000Z</time>
      </trkpt>
      <trkpt lat="45.54029" lon="3.79093">
        <ele>717</ele>
        <time>2000-01-01T01:47:13.000Z</time>
      </trkpt>
      <trkpt lat="45.54001" lon="3.79041">
        <ele>733</ele>
        <time>2000-01-01T01:47:23.000Z</time>
      </trkpt>
      <trkpt lat="45.5401" lon="3.79007">
        <ele>735</ele>
        <time>2000-01-01T01:47:33.000Z</time>
      </trkpt>
      <trkpt lat="45.5402" lon="3.78969">
        <ele>736</ele>
        <time>2000-01-01T01:47:43.000Z</time>
      </trkpt>
      <trkpt lat="45.54028" lon="3.7893">
        <ele>737</ele>
        <time>2000-01-01T01:47:53.000Z</time>
      </trkpt>
      <trkpt lat="45.5404" lon="3.7887">
        <ele>736</ele>
        <time>2000-01-01T01:48:03.000Z</time>
      </trkpt>
      <trkpt lat="45.54066" lon="3.7887">
        <ele>735</ele>
        <time>2000-01-01T01:48:13.000Z</time>
      </trkpt>
      <trkpt lat="45.541" lon="3.7887">
        <ele>724</ele>
        <time>2000-01-01T01:48:23.000Z</time>
      </trkpt>
      <trkpt lat="45.54128" lon="3.78829">
        <ele>723</ele>
        <time>2000-01-01T01:48:33.000Z</time>
      </trkpt>
      <trkpt lat="45.54152" lon="3.78817">
        <ele>722</ele>
        <time>2000-01-01T01:48:43.000Z</time>
      </trkpt>
      <trkpt lat="45.54179" lon="3.78803">
        <ele>720</ele>
        <time>2000-01-01T01:48:53.000Z</time>
      </trkpt>
      <trkpt lat="45.54197" lon="3.78776">
        <ele>718</ele>
        <time>2000-01-01T01:49:03.000Z</time>
      </trkpt>
      <trkpt lat="45.5422" lon="3.78741">
        <ele>718</ele>
        <time>2000-01-01T01:49:13.000Z</time>
      </trkpt>
      <trkpt lat="45.54237" lon="3.78714">
        <ele>717</ele>
        <time>2000-01-01T01:49:23.000Z</time>
      </trkpt>
      <trkpt lat="45.54258" lon="3.78683">
        <ele>716</ele>
        <time>2000-01-01T01:49:33.000Z</time>
      </trkpt>
      <trkpt lat="45.54294" lon="3.78681">
        <ele>710</ele>
        <time>2000-01-01T01:49:43.000Z</time>
      </trkpt>
      <trkpt lat="45.54293" lon="3.78641">
        <ele>711</ele>
        <time>2000-01-01T01:49:53.000Z</time>
      </trkpt>
      <trkpt lat="45.54292" lon="3.7858">
        <ele>712</ele>
        <time>2000-01-01T01:50:03.000Z</time>
      </trkpt>
      <trkpt lat="45.5429" lon="3.78531">
        <ele>708</ele>
        <time>2000-01-01T01:50:13.000Z</time>
      </trkpt>
      <trkpt lat="45.54306" lon="3.78476">
        <ele>705</ele>
        <time>2000-01-01T01:50:23.000Z</time>
      </trkpt>
      <trkpt lat="45.54313" lon="3.78442">
        <ele>704</ele>
        <time>2000-01-01T01:50:33.000Z</time>
      </trkpt>
      <trkpt lat="45.5432" lon="3.78405">
        <ele>704</ele>
        <time>2000-01-01T01:50:43.000Z</time>
      </trkpt>
      <trkpt lat="45.54296" lon="3.78387">
        <ele>717</ele>
        <time>2000-01-01T01:50:53.000Z</time>
      </trkpt>
      <trkpt lat="45.54264" lon="3.78364">
        <ele>717</ele>
        <time>2000-01-01T01:51:03.000Z</time>
      </trkpt>
      <trkpt lat="45.54266" lon="3.78341">
        <ele>719.3</ele>
        <time>2000-01-01T01:51:13.000Z</time>
      </trkpt>
      <trkpt lat="45.54277" lon="3.78308">
        <ele>718</ele>
        <time>2000-01-01T01:51:23.000Z</time>
      </trkpt>
      <trkpt lat="45.54291" lon="3.78267">
        <ele>718</ele>
        <time>2000-01-01T01:51:33.000Z</time>
      </trkpt>
      <trkpt lat="45.54294" lon="3.78203">
        <ele>718</ele>
        <time>2000-01-01T01:51:43.000Z</time>
      </trkpt>
      <trkpt lat="45.54289" lon="3.78168">
        <ele>718</ele>
        <time>2000-01-01T01:51:53.000Z</time>
      </trkpt>
      <trkpt lat="45.54274" lon="3.7814">
        <ele>713</ele>
        <time>2000-01-01T01:52:03.000Z</time>
      </trkpt>
      <trkpt lat="45.54241" lon="3.78151">
        <ele>711</ele>
        <time>2000-01-01T01:52:13.000Z</time>
      </trkpt>
      <trkpt lat="45.54207" lon="3.78163">
        <ele>709</ele>
        <time>2000-01-01T01:52:23.000Z</time>
      </trkpt>
      <trkpt lat="45.54182" lon="3.78171">
        <ele>709</ele>
        <time>2000-01-01T01:52:33.000Z</time>
      </trkpt>
      <trkpt lat="45.54153" lon="3.78181">
        <ele>705</ele>
        <time>2000-01-01T01:52:43.000Z</time>
      </trkpt>
      <trkpt lat="45.54152" lon="3.78121">
        <ele>701</ele>
        <time>2000-01-01T01:52:53.000Z</time>
      </trkpt>
      <trkpt lat="45.54142" lon="3.78079">
        <ele>697</ele>
        <time>2000-01-01T01:53:03.000Z</time>
      </trkpt>
      <trkpt lat="45.54122" lon="3.7805">
        <ele>693</ele>
        <time>2000-01-01T01:53:13.000Z</time>
      </trkpt>
      <trkpt lat="45.54078" lon="3.78036">
        <ele>690</ele>
        <time>2000-01-01T01:53:23.000Z</time>
      </trkpt>
      <trkpt lat="45.54048" lon="3.78045">
        <ele>689</ele>
        <time>2000-01-01T01:53:33.000Z</time>
      </trkpt>
      <trkpt lat="45.54023" lon="3.78052">
        <ele>688</ele>
        <time>2000-01-01T01:53:43.000Z</time>
      </trkpt>
      <trkpt lat="45.53995" lon="3.78061">
        <ele>687</ele>
        <time>2000-01-01T01:53:53.000Z</time>
      </trkpt>
      <trkpt lat="45.53966" lon="3.78059">
        <ele>687</ele>
        <time>2000-01-01T01:54:03.000Z</time>
      </trkpt>
      <trkpt lat="45.53923" lon="3.78055">
        <ele>687</ele>
        <time>2000-01-01T01:54:13.000Z</time>
      </trkpt>
      <trkpt lat="45.53914" lon="3.7806">
        <ele>703</ele>
        <time>2000-01-01T01:54:23.000Z</time>
      </trkpt>
      <trkpt lat="45.53888" lon="3.78082">
        <ele>687</ele>
        <time>2000-01-01T01:54:33.000Z</time>
      </trkpt>
      <trkpt lat="45.53866" lon="3.78101">
        <ele>686</ele>
        <time>2000-01-01T01:54:43.000Z</time>
      </trkpt>
      <trkpt lat="45.53841" lon="3.78123">
        <ele>685</ele>
        <time>2000-01-01T01:54:53.000Z</time>
      </trkpt>
      <trkpt lat="45.53815" lon="3.7811">
        <ele>685</ele>
        <time>2000-01-01T01:55:03.000Z</time>
      </trkpt>
      <trkpt lat="45.5378" lon="3.78093">
        <ele>685</ele>
        <time>2000-01-01T01:55:13.000Z</time>
      </trkpt>
      <trkpt lat="45.53751" lon="3.78107">
        <ele>686</ele>
        <time>2000-01-01T01:55:23.000Z</time>
      </trkpt>
      <trkpt lat="45.53726" lon="3.78119">
        <ele>686</ele>
        <time>2000-01-01T01:55:33.000Z</time>
      </trkpt>
      <trkpt lat="45.53694" lon="3.78134">
        <ele>687</ele>
        <time>2000-01-01T01:55:43.000Z</time>
      </trkpt>
      <trkpt lat="45.53668" lon="3.78145">
        <ele>686</ele>
        <time>2000-01-01T01:55:53.000Z</time>
      </trkpt>
      <trkpt lat="45.53643" lon="3.78167">
        <ele>685</ele>
        <time>2000-01-01T01:56:03.000Z</time>
      </trkpt>
      <trkpt lat="45.53623" lon="3.78185">
        <ele>681</ele>
        <time>2000-01-01T01:56:13.000Z</time>
      </trkpt>
      <trkpt lat="45.53602" lon="3.78203">
        <ele>681</ele>
        <time>2000-01-01T01:56:23.000Z</time>
      </trkpt>
      <trkpt lat="45.53581" lon="3.78227">
        <ele>679</ele>
        <time>2000-01-01T01:56:33.000Z</time>
      </trkpt>
      <trkpt lat="45.53553" lon="3.78258">
        <ele>677</ele>
        <time>2000-01-01T01:56:43.000Z</time>
      </trkpt>
      <trkpt lat="45.53527" lon="3.78311">
        <ele>677</ele>
        <time>2000-01-01T01:56:53.000Z</time>
      </trkpt>
      <trkpt lat="45.53494" lon="3.7833">
        <ele>676</ele>
        <time>2000-01-01T01:57:03.000Z</time>
      </trkpt>
      <trkpt lat="45.53461" lon="3.7835">
        <ele>678</ele>
        <time>2000-01-01T01:57:13.000Z</time>
      </trkpt>
      <trkpt lat="45.53428" lon="3.78369">
        <ele>681</ele>
        <time>2000-01-01T01:57:23.000Z</time>
      </trkpt>
      <trkpt lat="45.5339" lon="3.78391">
        <ele>682</ele>
        <time>2000-01-01T01:57:33.000Z</time>
      </trkpt>
      <trkpt lat="45.53361" lon="3.78372">
        <ele>684</ele>
        <time>2000-01-01T01:57:43.000Z</time>
      </trkpt>
      <trkpt lat="45.53332" lon="3.78353">
        <ele>692</ele>
        <time>2000-01-01T01:57:53.000Z</time>
      </trkpt>
      <trkpt lat="45.53299" lon="3.78332">
        <ele>695</ele>
        <time>2000-01-01T01:58:03.000Z</time>
      </trkpt>
      <trkpt lat="45.53291" lon="3.78287">
        <ele>696</ele>
        <time>2000-01-01T01:58:13.000Z</time>
      </trkpt>
      <trkpt lat="45.53283" lon="3.78242">
        <ele>694</ele>
        <time>2000-01-01T01:58:23.000Z</time>
      </trkpt>
      <trkpt lat="45.53273" lon="3.78187">
        <ele>693</ele>
        <time>2000-01-01T01:58:33.000Z</time>
      </trkpt>
      <trkpt lat="45.53269" lon="3.78148">
        <ele>689</ele>
        <time>2000-01-01T01:58:43.000Z</time>
      </trkpt>
      <trkpt lat="45.53264" lon="3.78093">
        <ele>689</ele>
        <time>2000-01-01T01:58:53.000Z</time>
      </trkpt>
      <trkpt lat="45.53248" lon="3.78059">
        <ele>690</ele>
        <time>2000-01-01T01:59:03.000Z</time>
      </trkpt>
      <trkpt lat="45.53223" lon="3.78005">
        <ele>697</ele>
        <time>2000-01-01T01:59:13.000Z</time>
      </trkpt>
      <trkpt lat="45.53233" lon="3.77955">
        <ele>698</ele>
        <time>2000-01-01T01:59:23.000Z</time>
      </trkpt>
      <trkpt lat="45.53243" lon="3.77905">
        <ele>701</ele>
        <time>2000-01-01T01:59:33.000Z</time>
      </trkpt>
      <trkpt lat="45.53253" lon="3.77855">
        <ele>702</ele>
        <time>2000-01-01T01:59:43.000Z</time>
      </trkpt>
      <trkpt lat="45.5326" lon="3.77822">
        <ele>696</ele>
        <time>2000-01-01T01:59:53.000Z</time>
      </trkpt>
      <trkpt lat="45.53267" lon="3.77786">
        <ele>691</ele>
        <time>2000-01-01T02:00:03.000Z</time>
      </trkpt>
      <trkpt lat="45.53272" lon="3.77739">
        <ele>681</ele>
        <time>2000-01-01T02:00:13.000Z</time>
      </trkpt>
      <trkpt lat="45.53276" lon="3.77693">
        <ele>680</ele>
        <time>2000-01-01T02:00:23.000Z</time>
      </trkpt>
      <trkpt lat="45.53282" lon="3.77632">
        <ele>672</ele>
        <time>2000-01-01T02:00:33.000Z</time>
      </trkpt>
      <trkpt lat="45.53287" lon="3.77593">
        <ele>665</ele>
        <time>2000-01-01T02:00:43.000Z</time>
      </trkpt>
      <trkpt lat="45.53293" lon="3.77539">
        <ele>659</ele>
        <time>2000-01-01T02:00:53.000Z</time>
      </trkpt>
      <trkpt lat="45.53294" lon="3.775">
        <ele>657</ele>
        <time>2000-01-01T02:01:03.000Z</time>
      </trkpt>
      <trkpt lat="45.53295" lon="3.77447">
        <ele>656</ele>
        <time>2000-01-01T02:01:13.000Z</time>
      </trkpt>
      <trkpt lat="45.53296" lon="3.77411">
        <ele>656</ele>
        <time>2000-01-01T02:01:23.000Z</time>
      </trkpt>
      <trkpt lat="45.53298" lon="3.77371">
        <ele>654</ele>
        <time>2000-01-01T02:01:33.000Z</time>
      </trkpt>
      <trkpt lat="45.53287" lon="3.77306">
        <ele>653</ele>
        <time>2000-01-01T02:01:43.000Z</time>
      </trkpt>
      <trkpt lat="45.53305" lon="3.77254">
        <ele>642</ele>
        <time>2000-01-01T02:01:53.000Z</time>
      </trkpt>
      <trkpt lat="45.53313" lon="3.77212">
        <ele>640</ele>
        <time>2000-01-01T02:02:03.000Z</time>
      </trkpt>
      <trkpt lat="45.53319" lon="3.77177">
        <ele>637</ele>
        <time>2000-01-01T02:02:13.000Z</time>
      </trkpt>
      <trkpt lat="45.53326" lon="3.77138">
        <ele>633</ele>
        <time>2000-01-01T02:02:23.000Z</time>
      </trkpt>
      <trkpt lat="45.53326" lon="3.77093">
        <ele>629</ele>
        <time>2000-01-01T02:02:33.000Z</time>
      </trkpt>
      <trkpt lat="45.53326" lon="3.77056">
        <ele>626</ele>
        <time>2000-01-01T02:02:43.000Z</time>
      </trkpt>
      <trkpt lat="45.53326" lon="3.77007">
        <ele>620</ele>
        <time>2000-01-01T02:02:53.000Z</time>
      </trkpt>
      <trkpt lat="45.533" lon="3.76988">
        <ele>615</ele>
        <time>2000-01-01T02:03:03.000Z</time>
      </trkpt>
      <trkpt lat="45.53306" lon="3.76961">
        <ele>614</ele>
        <time>2000-01-01T02:03:13.000Z</time>
      </trkpt>
      <trkpt lat="45.5332" lon="3.76948">
        <ele>619.1</ele>
        <time>2000-01-01T02:03:23.000Z</time>
      </trkpt>
      <trkpt lat="45.53339" lon="3.76943">
        <ele>614</ele>
        <time>2000-01-01T02:03:33.000Z</time>
      </trkpt>
      <trkpt lat="45.53362" lon="3.76954">
        <ele>613</ele>
        <time>2000-01-01T02:03:43.000Z</time>
      </trkpt>
      <trkpt lat="45.53386" lon="3.76966">
        <ele>613</ele>
        <time>2000-01-01T02:03:53.000Z</time>
      </trkpt>
      <trkpt lat="45.53406" lon="3.76975">
        <ele>613</ele>
        <time>2000-01-01T02:04:03.000Z</time>
      </trkpt>
      <trkpt lat="45.53426" lon="3.76979">
        <ele>609</ele>
        <time>2000-01-01T02:04:13.000Z</time>
      </trkpt>
      <trkpt lat="45.53435" lon="3.76958">
        <ele>611.1</ele>
        <time>2000-01-01T02:04:23.000Z</time>
      </trkpt>
      <trkpt lat="45.53443" lon="3.76917">
        <ele>607</ele>
        <time>2000-01-01T02:04:33.000Z</time>
      </trkpt>
      <trkpt lat="45.53437" lon="3.76878">
        <ele>605</ele>
        <time>2000-01-01T02:04:43.000Z</time>
      </trkpt>
      <trkpt lat="45.53428" lon="3.76821">
        <ele>604</ele>
        <time>2000-01-01T02:04:53.000Z</time>
      </trkpt>
      <trkpt lat="45.53406" lon="3.76808">
        <ele>604</ele>
        <time>2000-01-01T02:05:03.000Z</time>
      </trkpt>
      <trkpt lat="45.53383" lon="3.76795">
        <ele>604</ele>
        <time>2000-01-01T02:05:13.000Z</time>
      </trkpt>
      <trkpt lat="45.53359" lon="3.76767">
        <ele>601</ele>
        <time>2000-01-01T02:05:23.000Z</time>
      </trkpt>
      <trkpt lat="45.53339" lon="3.76742">
        <ele>597</ele>
        <time>2000-01-01T02:05:33.000Z</time>
      </trkpt>
      <trkpt lat="45.53315" lon="3.76713">
        <ele>592</ele>
        <time>2000-01-01T02:05:43.000Z</time>
      </trkpt>
      <trkpt lat="45.53287" lon="3.76692">
        <ele>591</ele>
        <time>2000-01-01T02:05:53.000Z</time>
      </trkpt>
      <trkpt lat="45.53264" lon="3.76673">
        <ele>591</ele>
        <time>2000-01-01T02:06:03.000Z</time>
      </trkpt>
      <trkpt lat="45.53232" lon="3.76649">
        <ele>590</ele>
        <time>2000-01-01T02:06:13.000Z</time>
      </trkpt>
      <trkpt lat="45.53201" lon="3.7661">
        <ele>590</ele>
        <time>2000-01-01T02:06:23.000Z</time>
      </trkpt>
      <trkpt lat="45.5317" lon="3.76571">
        <ele>590</ele>
        <time>2000-01-01T02:06:33.000Z</time>
      </trkpt>
      <trkpt lat="45.53139" lon="3.76533">
        <ele>589</ele>
        <time>2000-01-01T02:06:43.000Z</time>
      </trkpt>
      <trkpt lat="45.53108" lon="3.76494">
        <ele>584</ele>
        <time>2000-01-01T02:06:53.000Z</time>
      </trkpt>
      <trkpt lat="45.53077" lon="3.76455">
        <ele>581</ele>
        <time>2000-01-01T02:07:03.000Z</time>
      </trkpt>
      <trkpt lat="45.53046" lon="3.76416">
        <ele>581</ele>
        <time>2000-01-01T02:07:13.000Z</time>
      </trkpt>
      <trkpt lat="45.53023" lon="3.76388">
        <ele>582</ele>
        <time>2000-01-01T02:07:23.000Z</time>
      </trkpt>
      <trkpt lat="45.53005" lon="3.76365">
        <ele>584</ele>
        <time>2000-01-01T02:07:33.000Z</time>
      </trkpt>
      <trkpt lat="45.52985" lon="3.76341">
        <ele>584</ele>
        <time>2000-01-01T02:07:43.000Z</time>
      </trkpt>
      <trkpt lat="45.53001" lon="3.76305">
        <ele>583</ele>
        <time>2000-01-01T02:07:53.000Z</time>
      </trkpt>
      <trkpt lat="45.53015" lon="3.76276">
        <ele>582</ele>
        <time>2000-01-01T02:08:03.000Z</time>
      </trkpt>
      <trkpt lat="45.5303" lon="3.76243">
        <ele>578</ele>
        <time>2000-01-01T02:08:13.000Z</time>
      </trkpt>
      <trkpt lat="45.53056" lon="3.76226">
        <ele>575</ele>
        <time>2000-01-01T02:08:23.000Z</time>
      </trkpt>
      <trkpt lat="45.53096" lon="3.762">
        <ele>569</ele>
        <time>2000-01-01T02:08:33.000Z</time>
      </trkpt>
      <trkpt lat="45.53112" lon="3.76172">
        <ele>569</ele>
        <time>2000-01-01T02:08:43.000Z</time>
      </trkpt>
      <trkpt lat="45.53132" lon="3.76138">
        <ele>568</ele>
        <time>2000-01-01T02:08:53.000Z</time>
      </trkpt>
      <trkpt lat="45.53154" lon="3.76112">
        <ele>566</ele>
        <time>2000-01-01T02:09:03.000Z</time>
      </trkpt>
      <trkpt lat="45.5319" lon="3.7607">
        <ele>562</ele>
        <time>2000-01-01T02:09:13.000Z</time>
      </trkpt>
      <trkpt lat="45.53206" lon="3.76058">
        <ele>569.1</ele>
        <time>2000-01-01T02:09:23.000Z</time>
      </trkpt>
      <trkpt lat="45.53235" lon="3.76057">
        <ele>563</ele>
        <time>2000-01-01T02:09:33.000Z</time>
      </trkpt>
      <trkpt lat="45.53256" lon="3.76085">
        <ele>562</ele>
        <time>2000-01-01T02:09:43.000Z</time>
      </trkpt>
      <trkpt lat="45.53288" lon="3.76127">
        <ele>564</ele>
        <time>2000-01-01T02:09:53.000Z</time>
      </trkpt>
      <trkpt lat="45.53304" lon="3.76159">
        <ele>563</ele>
        <time>2000-01-01T02:10:03.000Z</time>
      </trkpt>
      <trkpt lat="45.53327" lon="3.76204">
        <ele>563</ele>
        <time>2000-01-01T02:10:13.000Z</time>
      </trkpt>
      <trkpt lat="45.5336" lon="3.76238">
        <ele>562</ele>
        <time>2000-01-01T02:10:23.000Z</time>
      </trkpt>
      <trkpt lat="45.53388" lon="3.76228">
        <ele>560</ele>
        <time>2000-01-01T02:10:33.000Z</time>
      </trkpt>
      <trkpt lat="45.5343" lon="3.76214">
        <ele>556</ele>
        <time>2000-01-01T02:10:43.000Z</time>
      </trkpt>
      <trkpt lat="45.53453" lon="3.7618">
        <ele>555</ele>
        <time>2000-01-01T02:10:53.000Z</time>
      </trkpt>
      <trkpt lat="45.53476" lon="3.76146">
        <ele>556</ele>
        <time>2000-01-01T02:11:03.000Z</time>
      </trkpt>
      <trkpt lat="45.53507" lon="3.76099">
        <ele>558</ele>
        <time>2000-01-01T02:11:13.000Z</time>
      </trkpt>
      <trkpt lat="45.53538" lon="3.76095">
        <ele>559</ele>
        <time>2000-01-01T02:11:23.000Z</time>
      </trkpt>
      <trkpt lat="45.53564" lon="3.76091">
        <ele>562</ele>
        <time>2000-01-01T02:11:33.000Z</time>
      </trkpt>
      <trkpt lat="45.53598" lon="3.76087">
        <ele>564</ele>
        <time>2000-01-01T02:11:43.000Z</time>
      </trkpt>
      <trkpt lat="45.5363" lon="3.76129">
        <ele>562</ele>
        <time>2000-01-01T02:11:53.000Z</time>
      </trkpt>
      <trkpt lat="45.5366" lon="3.76118">
        <ele>561</ele>
        <time>2000-01-01T02:12:03.000Z</time>
      </trkpt>
      <trkpt lat="45.53686" lon="3.76109">
        <ele>561</ele>
        <time>2000-01-01T02:12:13.000Z</time>
      </trkpt>
      <trkpt lat="45.53721" lon="3.76097">
        <ele>561</ele>
        <time>2000-01-01T02:12:23.000Z</time>
      </trkpt>
      <trkpt lat="45.53752" lon="3.76085">
        <ele>557</ele>
        <time>2000-01-01T02:12:33.000Z</time>
      </trkpt>
      <trkpt lat="45.53783" lon="3.76074">
        <ele>555</ele>
        <time>2000-01-01T02:12:43.000Z</time>
      </trkpt>
      <trkpt lat="45.53816" lon="3.76061">
        <ele>553</ele>
        <time>2000-01-01T02:12:53.000Z</time>
      </trkpt>
      <trkpt lat="45.53836" lon="3.76015">
        <ele>553</ele>
        <time>2000-01-01T02:13:03.000Z</time>
      </trkpt>
      <trkpt lat="45.53856" lon="3.75968">
        <ele>553</ele>
        <time>2000-01-01T02:13:13.000Z</time>
      </trkpt>
      <trkpt lat="45.53876" lon="3.75922">
        <ele>553</ele>
        <time>2000-01-01T02:13:23.000Z</time>
      </trkpt>
      <trkpt lat="45.53897" lon="3.75876">
        <ele>554</ele>
        <time>2000-01-01T02:13:33.000Z</time>
      </trkpt>
      <trkpt lat="45.53921" lon="3.7582">
        <ele>556</ele>
        <time>2000-01-01T02:13:43.000Z</time>
      </trkpt>
      <trkpt lat="45.53912" lon="3.75784">
        <ele>557</ele>
        <time>2000-01-01T02:13:53.000Z</time>
      </trkpt>
      <trkpt lat="45.53936" lon="3.75745">
        <ele>557</ele>
        <time>2000-01-01T02:14:03.000Z</time>
      </trkpt>
      <trkpt lat="45.5396" lon="3.75707">
        <ele>555</ele>
        <time>2000-01-01T02:14:13.000Z</time>
      </trkpt>
      <trkpt lat="45.53984" lon="3.75668">
        <ele>554</ele>
        <time>2000-01-01T02:14:23.000Z</time>
      </trkpt>
      <trkpt lat="45.54014" lon="3.7562">
        <ele>552</ele>
        <time>2000-01-01T02:14:33.000Z</time>
      </trkpt>
      <trkpt lat="45.54026" lon="3.75564">
        <ele>552</ele>
        <time>2000-01-01T02:14:43.000Z</time>
      </trkpt>
      <trkpt lat="45.54038" lon="3.75508">
        <ele>552</ele>
        <time>2000-01-01T02:14:53.000Z</time>
      </trkpt>
      <trkpt lat="45.54049" lon="3.75452">
        <ele>552</ele>
        <time>2000-01-01T02:15:03.000Z</time>
      </trkpt>
      <trkpt lat="45.54061" lon="3.75396">
        <ele>550</ele>
        <time>2000-01-01T02:15:13.000Z</time>
      </trkpt>
      <trkpt lat="45.54073" lon="3.75339">
        <ele>549</ele>
        <time>2000-01-01T02:15:23.000Z</time>
      </trkpt>
      <trkpt lat="45.54085" lon="3.75283">
        <ele>548</ele>
        <time>2000-01-01T02:15:33.000Z</time>
      </trkpt>
      <trkpt lat="45.54093" lon="3.75246">
        <ele>549</ele>
        <time>2000-01-01T02:15:43.000Z</time>
      </trkpt>
      <trkpt lat="45.54104" lon="3.75192">
        <ele>547</ele>
        <time>2000-01-01T02:15:53.000Z</time>
      </trkpt>
      <trkpt lat="45.54079" lon="3.75193">
        <ele>548</ele>
        <time>2000-01-01T02:16:03.000Z</time>
      </trkpt>
      <trkpt lat="45.5405" lon="3.75194">
        <ele>549</ele>
        <time>2000-01-01T02:16:13.000Z</time>
      </trkpt>
      <trkpt lat="45.54027" lon="3.75171">
        <ele>549</ele>
        <time>2000-01-01T02:16:23.000Z</time>
      </trkpt>
      <trkpt lat="45.53993" lon="3.75138">
        <ele>549</ele>
        <time>2000-01-01T02:16:33.000Z</time>
      </trkpt>
    </trkseg>
  </trk>
</gpx>